createdAt,value
2016-05-12T00:00:53.964Z,22.88
2016-05-12T00:01:53.950Z,22.86
2016-05-12T00:02:53.938Z,22.86
2016-05-12T00:03:53.925Z,22.89
2016-05-12T00:04:53.911Z,22.85
2016-05-12T00:05:53.899Z,22.94
2016-05-12T00:06:53.885Z,22.84
2016-05-12T00:07:53.888Z,22.86
2016-05-12T00:08:53.875Z,22.89
2016-05-12T00:09:53.862Z,22.85
2016-05-12T00:10:54.694Z,22.93
2016-05-12T00:11:53.837Z,22.84
2016-05-12T00:12:53.824Z,22.91
2016-05-12T00:13:53.811Z,22.85
2016-05-12T00:14:53.798Z,22.85
2016-05-12T00:15:53.785Z,22.94
2016-05-12T00:16:53.771Z,23.06
2016-05-12T00:17:53.618Z,23
2016-05-12T00:18:53.949Z,22.99
2016-05-12T00:19:53.734Z,22.93
2016-05-12T00:20:53.720Z,22.88
2016-05-12T00:21:53.707Z,22.84
2016-05-12T00:22:53.694Z,22.84
2016-05-12T00:23:53.713Z,22.89
2016-05-12T00:24:53.513Z,22.89
2016-05-12T00:25:53.671Z,22.84
2016-05-12T00:26:53.955Z,22.85
2016-05-12T00:27:53.661Z,22.85
2016-05-12T00:28:53.632Z,22.82
2016-05-12T00:29:53.463Z,22.85
2016-05-12T00:30:53.622Z,22.86
2016-05-12T00:31:53.594Z,22.84
2016-05-12T00:32:53.581Z,22.89
2016-05-12T00:33:53.614Z,22.84
2016-05-12T00:34:53.961Z,22.86
2016-05-12T00:35:53.558Z,22.85
2016-05-12T00:36:53.544Z,22.79
2016-05-12T00:37:53.532Z,22.81
2016-05-12T00:38:53.535Z,22.81
2016-05-12T00:39:53.506Z,22.79
2016-05-12T00:40:53.493Z,22.84
2016-05-12T00:41:53.589Z,22.86
2016-05-12T00:42:53.310Z,22.85
2016-05-12T00:43:53.469Z,22.79
2016-05-12T00:44:53.456Z,22.7
2016-05-12T00:45:53.553Z,22.67
2016-05-12T00:46:53.432Z,22.66
2016-05-12T00:47:53.418Z,22.69
2016-05-12T00:48:53.421Z,22.7
2016-05-12T00:49:53.454Z,22.67
2016-05-12T00:50:53.379Z,22.69
2016-05-12T00:51:53.381Z,22.69
2016-05-12T00:52:53.368Z,22.66
2016-05-12T00:53:53.356Z,22.63
2016-05-12T00:54:53.359Z,22.56
2016-05-12T00:55:53.314Z,22.61
2016-05-12T00:56:53.301Z,22.64
2016-05-12T00:57:53.601Z,22.67
2016-05-12T00:58:53.307Z,22.67
2016-05-12T00:59:53.278Z,22.59
2016-05-12T01:00:53.264Z,22.59
2016-05-12T01:01:53.253Z,22.57
2016-05-12T01:02:53.240Z,22.6
2016-05-12T01:03:53.227Z,22.64
2016-05-12T01:04:53.213Z,22.61
2016-05-12T01:05:53.607Z,22.57
2016-05-12T01:06:53.203Z,22.66
2016-05-12T01:07:53.191Z,22.57
2016-05-12T01:08:53.022Z,22.56
2016-05-12T01:09:53.164Z,22.63
2016-05-12T01:10:53.152Z,22.52
2016-05-12T01:11:52.982Z,22.66
2016-05-12T01:12:53.126Z,22.7
2016-05-12T01:13:53.613Z,22.69
2016-05-12T01:14:53.116Z,22.67
2016-05-12T01:15:52.931Z,22.66
2016-05-12T01:16:53.215Z,22.7
2016-05-12T01:17:53.092Z,22.74
2016-05-12T01:18:53.063Z,22.76
2016-05-12T01:19:53.051Z,22.74
2016-05-12T01:20:53.037Z,22.72
2016-05-12T01:21:53.666Z,22.79
2016-05-12T01:22:52.856Z,22.76
2016-05-12T01:23:52.999Z,22.67
2016-05-12T01:24:53.002Z,22.72
2016-05-12T01:25:52.973Z,22.7
2016-05-12T01:26:53.007Z,22.69
2016-05-12T01:27:52.962Z,22.75
2016-05-12T01:28:52.934Z,22.67
2016-05-12T01:29:53.687Z,22.66
2016-05-12T01:30:52.909Z,22.61
2016-05-12T01:31:52.739Z,22.64
2016-05-12T01:32:52.758Z,22.69
2016-05-12T01:33:52.885Z,22.7
2016-05-12T01:34:52.872Z,22.67
2016-05-12T01:35:52.875Z,22.61
2016-05-12T01:36:52.862Z,22.59
2016-05-12T01:37:53.647Z,22.59
2016-05-12T01:38:52.836Z,22.66
2016-05-12T01:39:52.667Z,22.61
2016-05-12T01:40:52.794Z,22.57
2016-05-12T01:41:52.798Z,22.57
2016-05-12T01:42:52.785Z,22.52
2016-05-12T01:43:52.771Z,22.66
2016-05-12T01:44:52.758Z,22.61
2016-05-12T01:45:52.933Z,22.66
2016-05-12T01:46:53.155Z,22.67
2016-05-12T01:47:52.563Z,22.6
2016-05-12T01:48:52.707Z,22.61
2016-05-12T01:49:52.694Z,22.61
2016-05-12T01:50:52.524Z,22.61
2016-05-12T01:51:52.668Z,22.64
2016-05-12T01:52:52.655Z,22.66
2016-05-12T01:53:52.954Z,22.69
2016-05-12T01:54:52.645Z,22.66
2016-05-12T01:55:52.632Z,22.75
2016-05-12T01:56:52.620Z,22.7
2016-05-12T01:57:52.606Z,22.61
2016-05-12T01:58:52.609Z,22.52
2016-05-12T01:59:52.424Z,22.6
2016-05-12T02:00:52.567Z,22.6
2016-05-12T02:01:53.663Z,22.52
2016-05-12T02:02:52.541Z,22.59
2016-05-12T02:03:52.560Z,22.59
2016-05-12T02:04:52.516Z,22.56
2016-05-12T02:05:52.518Z,22.54
2016-05-12T02:06:52.489Z,22.49
2016-05-12T02:07:52.492Z,22.51
2016-05-12T02:08:52.589Z,22.46
2016-05-12T02:09:52.466Z,22.48
2016-05-12T02:10:52.313Z,22.45
2016-05-12T02:11:52.425Z,22.49
2016-05-12T02:12:52.427Z,22.57
2016-05-12T02:13:52.415Z,22.48
2016-05-12T02:14:52.402Z,22.48
2016-05-12T02:15:52.404Z,22.49
2016-05-12T02:16:52.580Z,22.48
2016-05-12T02:17:52.379Z,22.54
2016-05-12T02:18:52.365Z,22.57
2016-05-12T02:19:52.353Z,22.56
2016-05-12T02:20:52.340Z,22.49
2016-05-12T02:21:52.171Z,22.52
2016-05-12T02:22:52.157Z,22.52
2016-05-12T02:23:52.301Z,22.49
2016-05-12T02:24:52.398Z,22.49
2016-05-12T02:25:52.276Z,22.49
2016-05-12T02:26:52.262Z,22.54
2016-05-12T02:27:52.249Z,22.57
2016-05-12T02:28:52.251Z,22.57
2016-05-12T02:29:52.223Z,22.48
2016-05-12T02:30:52.226Z,22.51
2016-05-12T02:31:52.073Z,22.46
2016-05-12T02:32:52.592Z,22.54
2016-05-12T02:33:52.187Z,22.63
2016-05-12T02:34:52.174Z,22.54
2016-05-12T02:35:52.178Z,22.56
2016-05-12T02:36:52.148Z,22.42
2016-05-12T02:37:52.135Z,22.44
2016-05-12T02:38:51.967Z,22.51
2016-05-12T02:39:52.110Z,22.48
2016-05-12T02:40:52.441Z,22.49
2016-05-12T02:41:52.084Z,22.52
2016-05-12T02:42:52.211Z,22.48
2016-05-12T02:43:52.058Z,22.38
2016-05-12T02:44:52.060Z,22.45
2016-05-12T02:45:52.032Z,22.41
2016-05-12T02:46:52.207Z,22.39
2016-05-12T02:47:52.007Z,22.35
2016-05-12T02:48:52.602Z,22.38
2016-05-12T02:49:51.980Z,22.33
2016-05-12T02:50:51.827Z,22.35
2016-05-12T02:51:51.799Z,22.29
2016-05-12T02:52:51.957Z,22.31
2016-05-12T02:53:51.929Z,22.35
2016-05-12T02:54:51.759Z,22.38
2016-05-12T02:55:51.918Z,22.36
2016-05-12T02:56:52.608Z,22.31
2016-05-12T02:57:51.892Z,22.29
2016-05-12T02:58:51.896Z,22.35
2016-05-12T02:59:51.867Z,22.31
2016-05-12T03:00:51.854Z,22.31
2016-05-12T03:01:51.950Z,22.3
2016-05-12T03:02:51.859Z,22.23
2016-05-12T03:03:51.689Z,22.19
2016-05-12T03:04:51.912Z,22.26
2016-05-12T03:05:51.805Z,22.17
2016-05-12T03:06:51.792Z,22.06
2016-05-12T03:07:51.778Z,22.02
2016-05-12T03:08:51.766Z,22.09
2016-05-12T03:09:51.737Z,22.02
2016-05-12T03:10:51.740Z,22.09
2016-05-12T03:11:51.727Z,22.11
2016-05-12T03:12:52.495Z,22.09
2016-05-12T03:13:51.561Z,22.12
2016-05-12T03:14:51.688Z,22.19
2016-05-12T03:15:51.691Z,22.23
2016-05-12T03:16:51.505Z,22.19
2016-05-12T03:17:51.666Z,22.19
2016-05-12T03:18:51.652Z,22.29
2016-05-12T03:19:51.624Z,22.27
2016-05-12T03:20:51.924Z,22.3
2016-05-12T03:21:51.613Z,22.15
2016-05-12T03:22:51.443Z,22.14
2016-05-12T03:23:51.603Z,22.17
2016-05-12T03:24:51.574Z,22.29
2016-05-12T03:25:51.405Z,22.19
2016-05-12T03:26:51.548Z,22.21
2016-05-12T03:27:51.535Z,22.24
2016-05-12T03:28:52.617Z,22.19
2016-05-12T03:29:51.509Z,22.31
2016-05-12T03:30:51.356Z,22.23
2016-05-12T03:31:51.921Z,22.21
2016-05-12T03:32:51.487Z,22.11
2016-05-12T03:33:51.489Z,22.15
2016-05-12T03:34:51.461Z,22.06
2016-05-12T03:35:51.447Z,22.11
2016-05-12T03:36:51.434Z,22.06
2016-05-12T03:37:51.437Z,22.01
2016-05-12T03:38:51.409Z,22.02
2016-05-12T03:39:51.428Z,21.96
2016-05-12T03:40:51.383Z,22.06
2016-05-12T03:41:51.369Z,21.91
2016-05-12T03:42:51.372Z,22.05
2016-05-12T03:43:51.344Z,22.06
2016-05-12T03:44:51.331Z,22.08
2016-05-12T03:45:51.318Z,22.15
2016-05-12T03:46:51.805Z,22.14
2016-05-12T03:47:51.308Z,22.05
2016-05-12T03:48:51.139Z,21.99
2016-05-12T03:49:51.110Z,22.01
2016-05-12T03:50:51.254Z,21.99
2016-05-12T03:51:51.257Z,21.93
2016-05-12T03:52:51.088Z,21.99
2016-05-12T03:53:51.215Z,22.04
2016-05-12T03:54:51.218Z,21.99
2016-05-12T03:55:51.204Z,22.02
2016-05-12T03:56:51.192Z,22.09
2016-05-12T03:57:51.179Z,22.12
2016-05-12T03:58:51.010Z,22.09
2016-05-12T03:59:51.154Z,22.06
2016-05-12T04:00:51.140Z,22.04
2016-05-12T04:01:51.706Z,22.09
2016-05-12T04:02:51.114Z,22.06
2016-05-12T04:03:51.132Z,22.11
2016-05-12T04:04:51.089Z,22.01
2016-05-12T04:05:51.092Z,22.08
2016-05-12T04:06:51.078Z,22.04
2016-05-12T04:07:50.909Z,22.05
2016-05-12T04:08:51.036Z,22.06
2016-05-12T04:09:50.945Z,22.11
2016-05-12T04:10:51.011Z,22.08
2016-05-12T04:11:51.014Z,22.08
2016-05-12T04:12:51.000Z,22.08
2016-05-12T04:13:50.988Z,22.09
2016-05-12T04:14:50.818Z,22.11
2016-05-12T04:15:50.961Z,22.08
2016-05-12T04:16:51.261Z,22.04
2016-05-12T04:17:50.951Z,22.04
2016-05-12T04:18:50.923Z,22.06
2016-05-12T04:19:50.925Z,22.08
2016-05-12T04:20:50.913Z,22.08
2016-05-12T04:21:50.899Z,22.05
2016-05-12T04:22:50.902Z,22.08
2016-05-12T04:23:50.873Z,22.04
2016-05-12T04:24:50.860Z,22.01
2016-05-12T04:25:50.957Z,22.05
2016-05-12T04:26:50.835Z,22.05
2016-05-12T04:27:50.821Z,22.08
2016-05-12T04:28:50.809Z,22.04
2016-05-12T04:29:50.812Z,22.02
2016-05-12T04:30:50.784Z,22.08
2016-05-12T04:31:50.832Z,22.04
2016-05-12T04:32:50.757Z,22.06
2016-05-12T04:33:50.948Z,22.11
2016-05-12T04:34:50.762Z,22.11
2016-05-12T04:35:50.578Z,22.06
2016-05-12T04:36:50.736Z,22.14
2016-05-12T04:37:50.553Z,22.11
2016-05-12T04:38:50.696Z,22.19
2016-05-12T04:39:50.667Z,22.06
2016-05-12T04:40:50.653Z,22.11
2016-05-12T04:41:50.969Z,22.06
2016-05-12T04:42:50.486Z,22.11
2016-05-12T04:43:50.631Z,22.11
2016-05-12T04:44:50.618Z,22.12
2016-05-12T04:45:50.620Z,22.14
2016-05-12T04:46:50.967Z,22.19
2016-05-12T04:47:50.594Z,22.17
2016-05-12T04:48:50.566Z,22.17
2016-05-12T04:49:50.959Z,22.14
2016-05-12T04:50:50.541Z,22.15
2016-05-12T04:51:50.543Z,22.14
2016-05-12T04:52:50.514Z,22.11
2016-05-12T04:53:50.501Z,22.14
2016-05-12T04:54:50.504Z,22.06
2016-05-12T04:55:50.491Z,22.12
2016-05-12T04:56:50.463Z,22.05
2016-05-12T04:57:51.012Z,22.11
2016-05-12T04:58:50.437Z,22.04
2016-05-12T04:59:50.440Z,22.11
2016-05-12T05:00:50.426Z,22.12
2016-05-12T05:01:50.413Z,22.14
2016-05-12T05:02:50.400Z,22.24
2016-05-12T05:03:50.232Z,22.27
2016-05-12T05:04:50.234Z,22.24
2016-05-12T05:05:50.221Z,22.21
2016-05-12T05:06:50.193Z,22.11
2016-05-12T05:07:50.336Z,22.04
2016-05-12T05:08:50.323Z,22.06
2016-05-12T05:09:50.309Z,22.04
2016-05-12T05:10:50.141Z,22.08
2016-05-12T05:11:50.284Z,22.06
2016-05-12T05:12:50.131Z,22.08
2016-05-12T05:13:50.274Z,22.06
2016-05-12T05:14:50.105Z,22.11
2016-05-12T05:15:50.247Z,22.04
2016-05-12T05:16:50.235Z,22.14
2016-05-12T05:17:50.222Z,22.14
2016-05-12T05:18:50.209Z,22.08
2016-05-12T05:19:50.040Z,22.04
2016-05-12T05:20:50.183Z,22.04
2016-05-12T05:21:50.280Z,22.02
2016-05-12T05:22:50.157Z,21.82
2016-05-12T05:23:50.161Z,21.9
2016-05-12T05:24:50.163Z,21.93
2016-05-12T05:25:50.119Z,21.85
2016-05-12T05:26:50.121Z,21.94
2016-05-12T05:27:49.952Z,21.86
2016-05-12T05:28:50.079Z,21.91
2016-05-12T05:29:50.270Z,21.98
2016-05-12T05:30:50.054Z,21.94
2016-05-12T05:31:50.494Z,21.89
2016-05-12T05:32:50.043Z,21.93
2016-05-12T05:33:49.874Z,21.9
2016-05-12T05:34:50.002Z,21.96
2016-05-12T05:35:50.004Z,21.94
2016-05-12T05:36:49.976Z,21.96
2016-05-12T05:37:50.275Z,21.89
2016-05-12T05:38:49.951Z,21.96
2016-05-12T05:39:49.954Z,22.08
2016-05-12T05:40:49.956Z,22.08
2016-05-12T05:41:49.943Z,22.17
2016-05-12T05:42:49.914Z,22.14
2016-05-12T05:43:49.900Z,22.14
2016-05-12T05:44:49.889Z,22.19
2016-05-12T05:45:50.281Z,22.23
2016-05-12T05:46:49.909Z,22.19
2016-05-12T05:47:49.694Z,22.15
2016-05-12T05:48:49.836Z,22.21
2016-05-12T05:49:49.824Z,22.33
2016-05-12T05:50:49.811Z,22.3
2016-05-12T05:51:49.813Z,22.3
2016-05-12T05:52:49.894Z,22.38
2016-05-12T05:53:49.787Z,22.29
2016-05-12T05:54:49.759Z,22.2
2016-05-12T05:55:49.763Z,22.35
2016-05-12T05:56:49.749Z,22.3
2016-05-12T05:57:49.579Z,22.38
2016-05-12T05:58:49.723Z,22.31
2016-05-12T05:59:49.710Z,22.38
2016-05-12T06:00:49.947Z,22.41
2016-05-12T06:01:49.809Z,22.33
2016-05-12T06:02:49.702Z,22.33
2016-05-12T06:03:49.659Z,22.36
2016-05-12T06:04:49.662Z,22.38
2016-05-12T06:05:49.648Z,22.33
2016-05-12T06:06:49.620Z,22.36
2016-05-12T06:07:49.606Z,22.33
2016-05-12T06:08:49.937Z,22.48
2016-05-12T06:09:49.595Z,22.45
2016-05-12T06:10:49.568Z,22.49
2016-05-12T06:11:49.555Z,22.48
2016-05-12T06:12:49.558Z,22.57
2016-05-12T06:13:49.544Z,22.57
2016-05-12T06:14:49.516Z,22.59
2016-05-12T06:15:49.503Z,22.52
2016-05-12T06:16:49.959Z,22.57
2016-05-12T06:17:49.492Z,22.59
2016-05-12T06:18:49.480Z,22.57
2016-05-12T06:19:49.467Z,22.54
2016-05-12T06:20:49.313Z,22.61
2016-05-12T06:21:49.472Z,22.63
2016-05-12T06:22:49.444Z,22.69
2016-05-12T06:23:49.415Z,22.6
2016-05-12T06:24:50.011Z,22.64
2016-05-12T06:25:49.389Z,22.72
2016-05-12T06:26:49.377Z,22.69
2016-05-12T06:27:49.363Z,22.67
2016-05-12T06:28:49.366Z,22.66
2016-05-12T06:29:49.338Z,22.72
2016-05-12T06:30:49.340Z,22.72
2016-05-12T06:31:49.171Z,22.69
2016-05-12T06:32:49.798Z,22.67
2016-05-12T06:33:49.302Z,22.69
2016-05-12T06:34:49.304Z,22.74
2016-05-12T06:35:49.119Z,22.67
2016-05-12T06:36:49.263Z,22.7
2016-05-12T06:37:49.250Z,22.7
2016-05-12T06:38:49.237Z,22.74
2016-05-12T06:39:49.224Z,22.69
2016-05-12T06:40:49.962Z,22.7
2016-05-12T06:41:49.198Z,22.76
2016-05-12T06:42:49.045Z,22.7
2016-05-12T06:43:49.016Z,22.78
2016-05-12T06:44:49.019Z,22.74
2016-05-12T06:45:49.162Z,22.76
2016-05-12T06:46:49.586Z,22.79
2016-05-12T06:47:48.980Z,22.76
2016-05-12T06:48:49.263Z,22.76
2016-05-12T06:49:49.153Z,22.75
2016-05-12T06:50:49.183Z,22.76
2016-05-12T06:51:49.212Z,22.76
2016-05-12T06:52:49.243Z,22.81
2016-05-12T06:53:49.289Z,22.85
2016-05-12T06:54:49.276Z,22.79
2016-05-12T06:55:49.279Z,22.78
2016-05-12T06:56:49.530Z,22.86
2016-05-12T06:57:49.283Z,22.79
2016-05-12T06:58:49.129Z,22.84
2016-05-12T06:59:49.293Z,22.81
2016-05-12T07:00:49.286Z,22.82
2016-05-12T07:01:49.168Z,22.84
2016-05-12T07:02:49.271Z,22.89
2016-05-12T07:03:49.341Z,22.85
2016-05-12T07:04:49.596Z,22.84
2016-05-12T07:05:49.241Z,22.86
2016-05-12T07:06:49.231Z,22.93
2016-05-12T07:07:49.235Z,22.86
2016-05-12T07:08:49.208Z,22.91
2016-05-12T07:09:49.197Z,22.88
2016-05-12T07:10:49.200Z,22.93
2016-05-12T07:11:49.218Z,22.94
2016-05-12T07:12:49.612Z,23.01
2016-05-12T07:13:49.147Z,23.01
2016-05-12T07:14:49.135Z,22.97
2016-05-12T07:15:49.138Z,23.03
2016-05-12T07:16:49.125Z,22.97
2016-05-12T07:17:49.112Z,23
2016-05-12T07:18:49.084Z,23
2016-05-12T07:19:49.228Z,23.07
2016-05-12T07:20:49.089Z,23.01
2016-05-12T07:21:49.061Z,23.09
2016-05-12T07:22:49.048Z,23.18
2016-05-12T07:23:49.036Z,23.12
2016-05-12T07:24:48.882Z,23.11
2016-05-12T07:25:49.009Z,23.03
2016-05-12T07:26:48.855Z,23.06
2016-05-12T07:27:49.078Z,23.03
2016-05-12T07:28:48.814Z,23.07
2016-05-12T07:29:48.802Z,22.99
2016-05-12T07:30:48.633Z,23.09
2016-05-12T07:31:48.791Z,23.14
2016-05-12T07:32:48.935Z,23.04
2016-05-12T07:33:48.766Z,23.12
2016-05-12T07:34:48.924Z,23.14
2016-05-12T07:35:49.240Z,23.07
2016-05-12T07:36:48.883Z,23.04
2016-05-12T07:37:48.870Z,23.14
2016-05-12T07:38:48.857Z,23.07
2016-05-12T07:39:48.844Z,23.06
2016-05-12T07:40:48.847Z,23.11
2016-05-12T07:41:48.818Z,23.14
2016-05-12T07:42:48.805Z,23.15
2016-05-12T07:43:49.261Z,23.18
2016-05-12T07:44:48.796Z,23.11
2016-05-12T07:45:48.798Z,23.12
2016-05-12T07:46:49.301Z,23.14
2016-05-12T07:47:48.772Z,23.16
2016-05-12T07:48:48.728Z,23.26
2016-05-12T07:49:48.731Z,23.18
2016-05-12T07:50:48.561Z,23.18
2016-05-12T07:51:49.096Z,23.18
2016-05-12T07:52:48.692Z,23.31
2016-05-12T07:53:48.679Z,23.32
2016-05-12T07:54:48.666Z,23.26
2016-05-12T07:55:48.653Z,23.18
2016-05-12T07:56:48.484Z,23.19
2016-05-12T07:57:48.627Z,23.16
2016-05-12T07:58:48.630Z,23.19
2016-05-12T07:59:49.116Z,23.26
2016-05-12T08:00:48.588Z,23.22
2016-05-12T08:01:48.606Z,23.23
2016-05-12T08:02:48.578Z,23.23
2016-05-12T08:03:48.580Z,23.22
2016-05-12T08:04:48.552Z,23.23
2016-05-12T08:05:48.539Z,23.29
2016-05-12T08:06:48.527Z,23.26
2016-05-12T08:07:48.560Z,23.26
2016-05-12T08:08:48.515Z,23.26
2016-05-12T08:09:48.488Z,23.37
2016-05-12T08:10:48.163Z,23.32
2016-05-12T08:11:48.321Z,23.38
2016-05-12T08:12:48.308Z,23.39
2016-05-12T08:13:48.295Z,23.35
2016-05-12T08:14:48.438Z,23.37
2016-05-12T08:15:48.410Z,23.39
2016-05-12T08:16:48.256Z,23.38
2016-05-12T08:17:48.400Z,23.38
2016-05-12T08:18:48.387Z,23.39
2016-05-12T08:19:48.373Z,23.39
2016-05-12T08:20:48.377Z,23.37
2016-05-12T08:21:48.348Z,23.38
2016-05-12T08:22:48.350Z,23.42
2016-05-12T08:23:49.322Z,23.47
2016-05-12T08:24:48.325Z,23.42
2016-05-12T08:25:48.311Z,23.39
2016-05-12T08:26:48.283Z,23.49
2016-05-12T08:27:48.130Z,23.44
2016-05-12T08:28:48.132Z,23.49
2016-05-12T08:29:48.260Z,23.45
2016-05-12T08:31:02.481Z,23.45
2016-05-12T08:31:48.703Z,23.44
2016-05-12T08:32:48.237Z,23.42
2016-05-12T08:33:48.225Z,23.45
2016-05-12T08:34:48.211Z,23.52
2016-05-12T08:35:48.245Z,23.47
2016-05-12T08:36:48.013Z,23.49
2016-05-12T08:37:48.094Z,23.5
2016-05-12T08:38:48.019Z,23.5
2016-05-12T08:39:49.474Z,23.49
2016-05-12T08:40:48.149Z,23.49
2016-05-12T08:41:48.120Z,23.57
2016-05-12T08:42:48.107Z,23.44
2016-05-12T08:43:47.938Z,23.49
2016-05-12T08:44:48.019Z,23.57
2016-05-12T08:45:48.131Z,23.54
2016-05-12T08:46:48.056Z,23.53
2016-05-12T08:47:48.152Z,23.56
2016-05-12T08:48:48.092Z,23.53
2016-05-12T08:49:48.079Z,23.56
2016-05-12T08:50:48.004Z,23.52
2016-05-12T08:51:47.990Z,23.56
2016-05-12T08:52:47.993Z,23.56
2016-05-12T08:53:47.981Z,23.64
2016-05-12T08:54:47.967Z,23.57
2016-05-12T08:55:47.956Z,23.63
2016-05-12T08:56:47.942Z,23.59
2016-05-12T08:57:47.928Z,23.68
2016-05-12T08:58:47.760Z,23.69
2016-05-12T08:59:47.762Z,23.62
2016-05-12T09:00:47.905Z,23.64
2016-05-12T09:01:50.065Z,23.64
2016-05-12T09:02:47.880Z,23.68
2016-05-12T09:03:47.711Z,23.69
2016-05-12T09:04:47.854Z,23.64
2016-05-12T09:05:47.700Z,23.67
2016-05-12T09:06:49.203Z,23.68
2016-05-12T09:07:47.815Z,23.63
2016-05-12T09:08:49.677Z,23.6
2016-05-12T09:09:47.789Z,23.68
2016-05-12T09:10:47.636Z,23.67
2016-05-12T09:11:47.779Z,23.69
2016-05-12T09:12:47.594Z,23.64
2016-05-12T09:13:47.768Z,23.64
2016-05-12T09:14:47.585Z,23.67
2016-05-12T09:15:47.727Z,23.68
2016-05-12T09:16:47.855Z,23.67
2016-05-12T09:17:47.546Z,23.62
2016-05-12T09:18:47.704Z,23.67
2016-05-12T09:19:47.566Z,23.62
2016-05-12T09:20:47.679Z,23.63
2016-05-12T09:21:47.665Z,23.78
2016-05-12T09:22:47.653Z,23.62
2016-05-12T09:23:47.481Z,23.81
2016-05-12T09:24:47.623Z,23.75
2016-05-12T09:25:47.454Z,23.69
2016-05-12T09:26:47.598Z,23.82
2016-05-12T09:27:47.584Z,23.77
2016-05-12T09:28:47.572Z,23.77
2016-05-12T09:29:47.403Z,23.77
2016-05-12T09:30:47.547Z,23.77
2016-05-12T09:31:47.236Z,23.77
2016-05-12T09:32:47.536Z,23.74
2016-05-12T09:33:47.523Z,23.78
2016-05-12T09:34:47.338Z,23.82
2016-05-12T09:35:47.497Z,23.78
2016-05-12T09:36:47.641Z,23.75
2016-05-12T09:37:47.472Z,23.79
2016-05-12T09:38:47.474Z,23.82
2016-05-12T09:39:47.446Z,23.77
2016-05-12T09:40:47.292Z,23.77
2016-05-12T09:41:47.419Z,23.82
2016-05-12T09:42:47.250Z,23.84
2016-05-12T09:43:47.409Z,23.89
2016-05-12T09:44:47.599Z,23.84
2016-05-12T09:45:47.368Z,23.87
2016-05-12T09:46:47.870Z,23.79
2016-05-12T09:47:47.202Z,23.86
2016-05-12T09:48:47.188Z,23.78
2016-05-12T09:49:47.332Z,23.82
2016-05-12T09:50:47.319Z,23.89
2016-05-12T09:51:47.321Z,23.9
2016-05-12T09:52:47.606Z,23.9
2016-05-12T09:53:47.139Z,23.84
2016-05-12T09:54:47.282Z,23.81
2016-05-12T09:55:47.270Z,23.87
2016-05-12T09:56:47.257Z,23.82
2016-05-12T09:57:47.103Z,23.86
2016-05-12T09:58:47.231Z,23.86
2016-05-12T09:59:47.233Z,23.81
2016-05-12T10:00:47.595Z,23.9
2016-05-12T10:01:47.114Z,23.82
2016-05-12T10:02:47.178Z,23.86
2016-05-12T10:03:47.182Z,23.78
2016-05-12T10:04:47.170Z,23.86
2016-05-12T10:05:47.156Z,23.89
2016-05-12T10:06:47.144Z,23.89
2016-05-12T10:07:47.146Z,23.82
2016-05-12T10:08:47.680Z,23.89
2016-05-12T10:09:47.120Z,23.9
2016-05-12T10:10:47.091Z,23.86
2016-05-12T10:11:47.078Z,23.92
2016-05-12T10:12:47.065Z,23.86
2016-05-12T10:13:47.068Z,23.89
2016-05-12T10:14:47.071Z,23.87
2016-05-12T10:15:47.042Z,23.82
2016-05-12T10:16:47.638Z,23.94
2016-05-12T10:17:47.016Z,23.92
2016-05-12T10:18:47.004Z,23.89
2016-05-12T10:19:46.991Z,23.9
2016-05-12T10:20:46.993Z,23.92
2016-05-12T10:21:46.965Z,23.89
2016-05-12T10:22:46.795Z,23.93
2016-05-12T10:23:46.799Z,23.87
2016-05-12T10:24:46.957Z,23.96
2016-05-12T10:25:47.070Z,24.04
2016-05-12T10:26:46.915Z,23.93
2016-05-12T10:27:46.762Z,23.99
2016-05-12T10:28:46.906Z,23.93
2016-05-12T10:29:46.876Z,24
2016-05-12T10:30:46.879Z,23.97
2016-05-12T10:31:46.991Z,23.97
2016-05-12T10:32:46.931Z,23.99
2016-05-12T10:33:46.842Z,24
2016-05-12T10:34:46.671Z,24.02
2016-05-12T10:35:46.814Z,23.97
2016-05-12T10:36:46.817Z,23.97
2016-05-12T10:37:46.805Z,24.02
2016-05-12T10:38:46.776Z,24.04
2016-05-12T10:39:46.638Z,24.08
2016-05-12T10:40:46.953Z,23.99
2016-05-12T10:41:46.737Z,24.02
2016-05-12T10:42:46.755Z,24.02
2016-05-12T10:43:46.743Z,23.99
2016-05-12T10:44:46.589Z,23.94
2016-05-12T10:45:46.701Z,24.06
2016-05-12T10:46:46.688Z,24.06
2016-05-12T10:47:46.675Z,24.02
2016-05-12T10:48:46.975Z,24.06
2016-05-12T10:49:46.665Z,24.14
2016-05-12T10:50:46.651Z,24.12
2016-05-12T10:51:46.640Z,24.14
2016-05-12T10:52:46.471Z,23.97
2016-05-12T10:53:46.457Z,24.12
2016-05-12T10:54:46.601Z,24.11
2016-05-12T10:55:46.587Z,24.11
2016-05-12T10:56:46.434Z,24.11
2016-05-12T10:57:46.406Z,24.06
2016-05-12T10:58:46.393Z,24.08
2016-05-12T10:59:46.551Z,23.99
2016-05-12T11:00:46.553Z,24.11
2016-05-12T11:01:46.541Z,24.08
2016-05-12T11:02:46.373Z,24
2016-05-12T11:03:46.624Z,24.05
2016-05-12T11:04:46.955Z,24
2016-05-12T11:05:46.317Z,24.08
2016-05-12T11:06:46.461Z,24.06
2016-05-12T11:07:46.136Z,24.19
2016-05-12T11:08:46.451Z,24.12
2016-05-12T11:09:46.437Z,24.14
2016-05-12T11:10:46.425Z,24.09
2016-05-12T11:11:46.600Z,24.09
2016-05-12T11:12:46.399Z,24.14
2016-05-12T11:13:46.386Z,24.08
2016-05-12T11:14:46.216Z,24.15
2016-05-12T11:15:46.375Z,24.16
2016-05-12T11:16:46.925Z,24.16
2016-05-12T11:17:46.349Z,24.16
2016-05-12T11:18:46.337Z,24.12
2016-05-12T11:19:46.465Z,24.21
2016-05-12T11:20:46.310Z,24.14
2016-05-12T11:21:46.298Z,24.16
2016-05-12T11:22:46.285Z,24.18
2016-05-12T11:23:46.287Z,24.21
2016-05-12T11:24:46.118Z,24.14
2016-05-12T11:25:46.106Z,24.27
2016-05-12T11:26:46.093Z,24.23
2016-05-12T11:27:46.626Z,24.26
2016-05-12T11:28:46.223Z,24.12
2016-05-12T11:29:45.898Z,24.19
2016-05-12T11:30:46.198Z,24.23
2016-05-12T11:31:46.543Z,24.26
2016-05-12T11:32:46.186Z,24.34
2016-05-12T11:33:46.174Z,24.26
2016-05-12T11:34:46.161Z,24.26
2016-05-12T11:35:46.647Z,24.27
2016-05-12T11:36:46.136Z,24.34
2016-05-12T11:37:45.966Z,24.3
2016-05-12T11:38:46.109Z,24.33
2016-05-12T11:39:45.939Z,24.31
2016-05-12T11:40:46.100Z,24.37
2016-05-12T11:41:46.070Z,24.48
2016-05-12T11:42:45.916Z,24.45
2016-05-12T11:43:45.905Z,24.42
2016-05-12T11:44:46.047Z,24.45
2016-05-12T11:45:45.894Z,24.46
2016-05-12T11:46:46.038Z,24.41
2016-05-12T11:47:46.008Z,24.39
2016-05-12T11:48:45.996Z,24.39
2016-05-12T11:49:45.998Z,24.44
2016-05-12T11:50:45.986Z,24.44
2016-05-12T11:51:46.644Z,24.46
2016-05-12T11:52:45.959Z,24.56
2016-05-12T11:53:45.806Z,24.53
2016-05-12T11:54:45.949Z,24.52
2016-05-12T11:55:45.780Z,24.56
2016-05-12T11:56:45.907Z,24.59
2016-05-12T11:57:45.910Z,24.64
2016-05-12T11:58:45.898Z,24.64
2016-05-12T11:59:46.681Z,24.68
2016-05-12T12:00:45.715Z,24.6
2016-05-12T12:01:45.718Z,24.59
2016-05-12T12:02:45.862Z,24.6
2016-05-12T12:03:45.834Z,24.51
2016-05-12T12:04:45.820Z,24.66
2016-05-12T12:05:45.806Z,24.66
2016-05-12T12:06:45.794Z,24.79
2016-05-12T12:07:45.922Z,24.83
2016-05-12T12:08:45.814Z,24.83
2016-05-12T12:09:45.787Z,24.77
2016-05-12T12:10:45.773Z,24.99
2016-05-12T12:11:45.604Z,25.01
2016-05-12T12:12:45.732Z,25.04
2016-05-12T12:13:45.422Z,25.04
2016-05-12T12:14:45.549Z,25.07
2016-05-12T12:15:45.958Z,25.24
2016-05-12T12:16:45.774Z,25.17
2016-05-12T12:17:45.683Z,25.16
2016-05-12T12:18:45.514Z,25.23
2016-05-12T12:19:45.657Z,25.27
2016-05-12T12:20:45.644Z,25.3
2016-05-12T12:21:45.631Z,25.41
2016-05-12T12:22:45.541Z,25.38
2016-05-12T12:23:45.996Z,25.19
2016-05-12T12:24:45.624Z,25.2
2016-05-12T12:25:45.595Z,25.3
2016-05-12T12:26:45.582Z,25.35
2016-05-12T12:27:45.585Z,25.39
2016-05-12T12:28:45.571Z,25.36
2016-05-12T12:29:45.559Z,25.48
2016-05-12T12:30:45.280Z,25.38
2016-05-12T12:31:45.954Z,25.29
2016-05-12T12:32:45.521Z,25.19
2016-05-12T12:33:45.507Z,25.34
2016-05-12T12:34:45.509Z,25.44
2016-05-12T12:35:45.340Z,25.48
2016-05-12T12:36:45.500Z,25.59
2016-05-12T12:37:45.487Z,25.59
2016-05-12T12:38:45.615Z,25.61
2016-05-12T12:39:45.445Z,25.63
2016-05-12T12:40:45.448Z,25.66
2016-05-12T12:41:45.420Z,25.71
2016-05-12T12:42:45.406Z,25.54
2016-05-12T12:43:45.409Z,25.53
2016-05-12T12:44:45.396Z,25.36
2016-05-12T12:45:45.383Z,25.42
2016-05-12T12:46:45.386Z,25.48
2016-05-12T12:47:45.372Z,25.59
2016-05-12T12:48:45.360Z,25.72
2016-05-12T12:49:45.346Z,25.74
2016-05-12T12:50:45.335Z,25.72
2016-05-12T12:51:45.321Z,25.48
2016-05-12T12:52:45.308Z,25.38
2016-05-12T12:53:45.311Z,25.36
2016-05-12T12:54:45.704Z,25.56